Time;durP1;ratioP1;P1;durP2;ratioP2;P2;SDS_P1;SDS_P2;PMS_P1;PMS_P2;Temp;Humidity;BMP_temperature;BMP_pressure;BME280_temperature;BME280_humidity;BME280_pressure;Samples;Min_cycle;Max_cycle;Signal;HPM_P1;HPM_P2
2024/01/16 00:01:20;;;;;;;12.52;1.27;;;0.00;99.90;;;;;;5086633;28;20852;-62
2024/01/16 00:03:46;;;;;;;11.90;2.55;;;0.00;99.90;;;;;;5091098;28;20039;-62
2024/01/16 00:06:12;;;;;;;7.10;0.93;;;0.00;99.90;;;;;;5087942;28;20047;-63
2024/01/16 00:08:37;;;;;;;7.93;0.70;;;0.00;99.90;;;;;;5082766;28;20036;-61
2024/01/16 00:11:03;;;;;;;11.23;1.88;;;-0.10;99.90;;;;;;5084198;28;20100;-62
2024/01/16 00:13:29;;;;;;;7.65;0.68;;;-0.10;99.90;;;;;;5088781;28;20127;-63
2024/01/16 00:15:56;;;;;;;8.23;1.00;;;-0.10;99.90;;;;;;5081481;28;20474;-62
2024/01/16 00:18:22;;;;;;;9.82;1.40;;;-0.10;99.90;;;;;;5087097;28;20098;-63
2024/01/16 00:20:48;;;;;;;6.88;0.85;;;-0.10;99.90;;;;;;5117395;27;20052;-63
2024/01/16 00:23:13;;;;;;;6.05;1.10;;;-0.10;99.90;;;;;;5083248;28;20044;-62
2024/01/16 00:25:39;;;;;;;7.88;0.82;;;-0.20;99.90;;;;;;5080791;28;20136;-62
2024/01/16 00:28:05;;;;;;;8.85;0.90;;;-0.10;99.90;;;;;;5082869;28;20073;-63
2024/01/16 00:30:31;;;;;;;12.38;1.45;;;-0.10;99.90;;;;;;5082615;28;20048;-62
2024/01/16 00:32:56;;;;;;;4.88;0.50;;;-0.10;99.90;;;;;;5117127;27;20040;-63
2024/01/16 00:35:22;;;;;;;4.78;0.82;;;-0.20;99.90;;;;;;5085728;28;20038;-63
2024/01/16 00:37:47;;;;;;;9.73;1.02;;;-0.20;99.90;;;;;;5090944;28;20042;-62
2024/01/16 00:40:13;;;;;;;6.10;0.60;;;-0.20;99.90;;;;;;5087325;28;20187;-62
2024/01/16 00:42:39;;;;;;;4.53;0.57;;;-0.20;99.90;;;;;;5092272;28;20092;-63
2024/01/16 00:45:05;;;;;;;5.57;1.33;;;-0.20;99.90;;;;;;5091710;28;20126;-63
2024/01/16 00:47:30;;;;;;;7.30;0.80;;;-0.20;99.90;;;;;;5089298;28;20084;-62
2024/01/16 00:49:56;;;;;;;5.90;0.90;;;-0.10;99.90;;;;;;5091003;28;20064;-62
2024/01/16 00:52:21;;;;;;;6.55;0.40;;;-0.20;99.90;;;;;;5089372;28;20094;-62
2024/01/16 00:54:47;;;;;;;8.85;1.77;;;-0.20;99.90;;;;;;5089133;28;20044;-62
2024/01/16 00:57:15;;;;;;;8.52;0.50;;;-0.20;99.90;;;;;;5092311;28;20094;-62
2024/01/16 00:59:40;;;;;;;3.72;0.30;;;-0.20;99.90;;;;;;5122631;27;20079;-62
2024/01/16 01:02:06;;;;;;;7.18;0.60;;;-0.10;99.90;;;;;;5089797;28;20071;-62
2024/01/16 01:04:33;;;;;;;4.95;0.63;;;-0.20;99.90;;;;;;5073106;28;20044;-62
2024/01/16 01:06:58;;;;;;;6.55;0.63;;;-0.10;99.90;;;;;;5088817;28;20040;-62
2024/01/16 01:09:24;;;;;;;5.55;0.50;;;-0.10;99.90;;;;;;5086862;28;20054;-61
2024/01/16 01:11:49;;;;;;;4.38;0.28;;;-0.10;99.90;;;;;;5088260;28;20055;-62
2024/01/16 01:14:15;;;;;;;3.92;0.70;;;-0.10;99.90;;;;;;5092525;28;20466;-62
2024/01/16 01:16:41;;;;;;;2.47;0.28;;;-0.10;99.90;;;;;;5088780;28;20044;-62
2024/01/16 01:19:06;;;;;;;4.65;0.98;;;0.00;99.90;;;;;;5083580;28;20313;-62
2024/01/16 01:21:32;;;;;;;2.63;0.57;;;0.00;99.90;;;;;;5084210;28;20051;-61
2024/01/16 01:23:58;;;;;;;2.22;0.30;;;0.00;99.90;;;;;;5082918;28;20444;-63
2024/01/16 01:26:23;;;;;;;4.13;0.50;;;0.00;99.90;;;;;;5086705;28;20036;-62
2024/01/16 01:28:49;;;;;;;4.32;0.30;;;0.00;99.90;;;;;;5082315;28;20033;-62
2024/01/16 01:31:15;;;;;;;1.90;0.30;;;0.00;99.90;;;;;;5082869;28;20569;-62
2024/01/16 01:33:40;;;;;;;4.07;0.45;;;-0.10;99.90;;;;;;5086855;28;20085;-62
2024/01/16 01:36:06;;;;;;;4.63;0.63;;;-0.10;99.90;;;;;;5083241;28;20124;-62
2024/01/16 01:38:32;;;;;;;6.18;0.45;;;-0.20;99.90;;;;;;5080486;28;20047;-61
2024/01/16 01:40:57;;;;;;;4.15;0.35;;;-0.10;99.90;;;;;;5085724;28;20074;-62
2024/01/16 01:43:24;;;;;;;8.18;0.63;;;-0.20;99.90;;;;;;5084361;28;20036;-62
2024/01/16 01:46:08;;;;;;;3.75;0.20;;;-0.20;99.90;;;;;;5085369;28;20119;-63
2024/01/16 01:48:35;;;;;;;2.58;0.25;;;-0.20;99.90;;;;;;5087241;28;20044;-62
2024/01/16 01:51:01;;;;;;;8.00;0.47;;;-0.20;99.90;;;;;;5080635;28;20051;-63
2024/01/16 01:53:29;;;;;;;2.22;0.40;;;-0.20;99.90;;;;;;5082140;28;20075;-63
2024/01/16 01:55:55;;;;;;;2.88;0.20;;;-0.30;99.90;;;;;;5085549;28;20050;-63
2024/01/16 01:58:21;;;;;;;6.18;0.20;;;-0.30;99.90;;;;;;5083116;28;20040;-62
2024/01/16 02:00:46;;;;;;;3.10;0.30;;;-0.30;99.90;;;;;;5083803;28;20043;-62
2024/01/16 02:03:13;;;;;;;5.93;0.47;;;-0.20;99.90;;;;;;5101243;27;20063;-62
2024/01/16 02:05:39;;;;;;;4.60;0.77;;;-0.30;99.90;;;;;;5085943;28;20035;-62
2024/01/16 02:08:05;;;;;;;5.63;0.65;;;-0.30;99.90;;;;;;5107939;27;20040;-62
2024/01/16 02:10:32;;;;;;;7.25;0.82;;;-0.30;99.90;;;;;;5087331;28;20037;-63
2024/01/16 02:12:57;;;;;;;7.20;0.40;;;-0.20;99.90;;;;;;5088559;28;20051;-63
2024/01/16 02:15:24;;;;;;;6.60;0.52;;;-0.20;99.90;;;;;;5080710;28;20525;-63
2024/01/16 02:17:50;;;;;;;4.22;0.60;;;-0.20;99.90;;;;;;5086260;28;20037;-63
2024/01/16 02:20:16;;;;;;;5.72;0.63;;;-0.10;99.90;;;;;;5084638;28;20491;-62
2024/01/16 02:22:47;;;;;;;5.20;0.47;;;-0.10;99.90;;;;;;5080875;28;20115;-63
2024/01/16 02:25:13;;;;;;;7.97;0.77;;;-0.10;99.90;;;;;;5083472;28;20436;-62
2024/01/16 02:27:39;;;;;;;3.45;0.30;;;0.00;99.90;;;;;;5081851;28;20044;-62
2024/01/16 02:30:06;;;;;;;4.85;0.50;;;0.00;99.90;;;;;;5084632;28;20056;-62
2024/01/16 02:32:32;;;;;;;2.83;0.25;;;0.10;99.90;;;;;;5083884;28;20044;-62
2024/01/16 02:34:58;;;;;;;4.03;0.47;;;0.10;99.90;;;;;;5085340;28;20048;-62
2024/01/16 02:37:24;;;;;;;10.13;0.88;;;0.10;99.90;;;;;;5080087;28;20044;-62
2024/01/16 02:39:49;;;;;;;1.13;0.20;;;0.10;99.90;;;;;;5081854;28;20490;-63
2024/01/16 02:42:15;;;;;;;4.43;0.50;;;0.10;99.90;;;;;;5082640;28;20066;-62
2024/01/16 02:44:41;;;;;;;4.90;0.30;;;0.10;99.90;;;;;;5084369;28;20062;-63
2024/01/16 02:47:07;;;;;;;4.55;0.88;;;0.10;99.90;;;;;;5081167;28;20028;-62
2024/01/16 02:49:33;;;;;;;3.83;0.30;;;0.10;99.90;;;;;;5083013;28;20064;-62
2024/01/16 02:51:59;;;;;;;7.30;0.57;;;0.00;99.90;;;;;;5110732;27;20075;-63
2024/01/16 02:54:24;;;;;;;3.20;0.32;;;0.00;99.90;;;;;;5081213;28;20144;-62
2024/01/16 02:56:50;;;;;;;5.68;0.30;;;-0.10;99.90;;;;;;5083311;28;20048;-63
2024/01/16 02:59:16;;;;;;;3.13;0.88;;;-0.10;99.90;;;;;;5079867;28;20517;-62
2024/01/16 03:01:42;;;;;;;8.77;0.60;;;-0.10;99.90;;;;;;5083122;28;20078;-62
2024/01/16 03:04:08;;;;;;;2.83;0.35;;;-0.10;99.90;;;;;;5083244;28;20082;-63
2024/01/16 03:06:34;;;;;;;5.75;0.50;;;-0.20;99.90;;;;;;5082578;28;20036;-63
2024/01/16 03:09:00;;;;;;;3.50;0.43;;;-0.20;99.90;;;;;;5084158;28;20101;-62
2024/01/16 03:11:25;;;;;;;4.50;0.43;;;-0.20;99.90;;;;;;5079792;28;20040;-63
2024/01/16 03:13:53;;;;;;;2.83;0.50;;;-0.20;99.90;;;;;;5084235;28;20067;-62
2024/01/16 03:16:18;;;;;;;6.35;1.27;;;-0.20;99.90;;;;;;5084851;28;20063;-63
2024/01/16 03:18:44;;;;;;;4.70;0.40;;;-0.20;99.90;;;;;;5121421;27;20663;-63
2024/01/16 03:21:11;;;;;;;4.68;0.65;;;-0.30;99.90;;;;;;5088753;28;20031;-62
2024/01/16 03:23:36;;;;;;;5.93;0.30;;;-0.30;99.90;;;;;;5083936;28;20044;-62
2024/01/16 03:26:03;;;;;;;5.63;0.50;;;-0.30;99.90;;;;;;5070944;28;20038;-62
2024/01/16 03:28:29;;;;;;;5.20;0.30;;;-0.20;99.90;;;;;;5089027;28;20170;-63
2024/01/16 03:30:54;;;;;;;4.78;0.45;;;-0.30;99.90;;;;;;5081957;28;20123;-63
2024/01/16 03:33:20;;;;;;;1.55;0.20;;;-0.20;99.90;;;;;;5117539;27;20064;-62
2024/01/16 03:35:45;;;;;;;5.70;0.90;;;-0.30;99.90;;;;;;5086507;28;20112;-62
2024/01/16 03:38:11;;;;;;;3.95;0.57;;;-0.30;99.90;;;;;;5086940;28;20035;-63
2024/01/16 03:40:37;;;;;;;3.78;0.40;;;-0.20;99.90;;;;;;5114844;27;20660;-63
2024/01/16 03:43:05;;;;;;;7.63;0.93;;;-0.30;99.90;;;;;;5120688;27;20132;-62
2024/01/16 03:45:30;;;;;;;4.95;0.52;;;-0.20;99.90;;;;;;5087268;28;20050;-62
2024/01/16 03:47:56;;;;;;;4.40;0.70;;;-0.20;99.90;;;;;;5082808;28;20393;-63
2024/01/16 03:50:21;;;;;;;3.72;0.70;;;-0.20;99.90;;;;;;5087566;28;20040;-63
2024/01/16 03:52:47;;;;;;;11.95;1.13;;;-0.20;99.90;;;;;;5084980;28;20051;-62
2024/01/16 03:55:13;;;;;;;7.32;1.13;;;-0.10;99.90;;;;;;5084900;28;20031;-62
2024/01/16 03:57:38;;;;;;;7.63;0.50;;;-0.20;99.90;;;;;;5086373;28;20127;-62
2024/01/16 04:00:05;;;;;;;4.65;0.30;;;-0.10;99.90;;;;;;5081921;28;20707;-63
2024/01/16 04:02:34;;;;;;;3.72;0.30;;;-0.10;99.90;;;;;;5067685;28;20098;-62
2024/01/16 04:05:00;;;;;;;5.15;0.80;;;-0.10;99.90;;;;;;5084580;28;20385;-62
2024/01/16 04:07:26;;;;;;;9.52;0.95;;;-0.10;99.90;;;;;;5084422;28;20035;-62
2024/01/16 04:09:52;;;;;;;5.25;0.70;;;-0.10;99.90;;;;;;5081972;28;20043;-63
2024/01/16 04:12:17;;;;;;;6.35;1.00;;;-0.10;99.90;;;;;;5085756;28;20618;-62
2024/01/16 04:14:43;;;;;;;3.38;0.43;;;-0.10;99.90;;;;;;5085859;28;20047;-63
2024/01/16 04:17:09;;;;;;;3.88;0.30;;;-0.10;99.90;;;;;;5085764;28;20188;-62
2024/01/16 04:19:34;;;;;;;7.85;0.63;;;-0.10;99.90;;;;;;5086790;28;20044;-63
2024/01/16 04:22:04;;;;;;;1.50;0.28;;;-0.10;99.90;;;;;;5082587;28;20047;-63
2024/01/16 04:24:30;;;;;;;5.88;0.90;;;-0.10;99.90;;;;;;5084767;28;20044;-62
2024/01/16 04:26:56;;;;;;;7.53;0.43;;;0.00;99.90;;;;;;5085855;28;20033;-63
2024/01/16 04:29:21;;;;;;;7.63;0.50;;;0.00;99.90;;;;;;5086530;28;20367;-62
2024/01/16 04:31:47;;;;;;;8.68;0.63;;;-0.10;99.90;;;;;;5087392;28;20684;-62
2024/01/16 04:34:13;;;;;;;6.45;0.50;;;0.00;99.90;;;;;;5118044;27;20048;-62
2024/01/16 04:36:38;;;;;;;6.35;2.05;;;0.00;99.90;;;;;;5082104;28;20155;-62
2024/01/16 04:39:04;;;;;;;7.93;1.02;;;0.00;99.90;;;;;;5081563;28;20515;-62
2024/01/16 04:41:30;;;;;;;7.75;0.40;;;0.00;99.90;;;;;;5084082;28;20105;-62
2024/01/16 04:43:55;;;;;;;7.63;0.70;;;0.00;99.90;;;;;;5102027;28;20032;-62
2024/01/16 04:46:21;;;;;;;7.22;0.80;;;0.00;99.90;;;;;;5085556;28;20498;-62
2024/01/16 04:48:47;;;;;;;3.97;0.50;;;0.00;99.90;;;;;;5083944;28;20047;-63
2024/01/16 04:51:12;;;;;;;8.90;0.55;;;0.00;99.90;;;;;;5085370;28;20058;-63
2024/01/16 04:53:38;;;;;;;5.53;0.60;;;0.00;99.90;;;;;;5086883;28;20094;-63
2024/01/16 04:56:04;;;;;;;9.13;1.40;;;0.00;99.90;;;;;;5083918;28;20055;-63
2024/01/16 04:58:30;;;;;;;7.30;0.68;;;0.00;99.90;;;;;;5113922;27;20044;-62
2024/01/16 05:00:56;;;;;;;10.35;0.75;;;0.00;99.90;;;;;;5088868;28;20030;-63
2024/01/16 05:03:21;;;;;;;6.70;0.82;;;0.10;99.90;;;;;;5083382;28;20044;-63
2024/01/16 05:05:47;;;;;;;4.45;0.70;;;-0.10;99.90;;;;;;5112457;27;20040;-62
2024/01/16 05:08:12;;;;;;;5.05;0.50;;;0.00;99.90;;;;;;5089870;28;20058;-62
2024/01/16 05:10:38;;;;;;;4.68;0.52;;;0.00;99.90;;;;;;5082385;28;20089;-63
2024/01/16 05:13:04;;;;;;;8.93;0.40;;;0.00;99.90;;;;;;5082365;28;20101;-62
2024/01/16 05:15:29;;;;;;;11.25;1.30;;;0.00;99.90;;;;;;5084518;28;21375;-63
2024/01/16 05:17:55;;;;;;;9.40;0.75;;;0.00;99.90;;;;;;5114385;27;20043;-63
2024/01/16 05:20:21;;;;;;;6.00;0.60;;;0.00;99.90;;;;;;5081682;28;20043;-62
2024/01/16 05:22:47;;;;;;;5.43;0.47;;;0.00;99.90;;;;;;5082723;28;20366;-62
2024/01/16 05:25:12;;;;;;;7.43;0.75;;;0.00;99.90;;;;;;5104031;27;20060;-62
2024/01/16 05:27:38;;;;;;;5.80;0.57;;;0.00;99.90;;;;;;5089205;28;20032;-63
2024/01/16 05:30:04;;;;;;;6.18;0.57;;;0.00;99.90;;;;;;5087763;28;20443;-62
2024/01/16 05:32:30;;;;;;;5.15;0.50;;;0.00;99.90;;;;;;5082371;28;20032;-62
2024/01/16 05:34:55;;;;;;;6.32;0.70;;;0.00;99.90;;;;;;5081859;28;20032;-62
2024/01/16 05:37:21;;;;;;;2.97;0.35;;;0.00;99.90;;;;;;5084008;28;20051;-63
2024/01/16 05:39:47;;;;;;;3.17;0.40;;;-0.10;99.90;;;;;;5080377;28;20040;-62
2024/01/16 05:42:12;;;;;;;6.00;1.38;;;-0.10;99.90;;;;;;5082295;28;20450;-62
2024/01/16 05:44:38;;;;;;;5.43;0.43;;;0.00;99.90;;;;;;5078770;28;20037;-62
2024/01/16 05:47:05;;;;;;;6.90;0.50;;;0.00;99.90;;;;;;5082610;28;20039;-63
2024/01/16 05:49:31;;;;;;;8.25;0.50;;;0.00;99.90;;;;;;5085950;28;20032;-62
2024/01/16 05:51:56;;;;;;;5.10;0.40;;;0.00;99.90;;;;;;5087445;28;20128;-62
2024/01/16 05:54:22;;;;;;;6.38;0.57;;;0.00;99.90;;;;;;5082224;28;20052;-62
2024/01/16 05:56:49;;;;;;;8.88;0.80;;;0.00;99.90;;;;;;5086396;28;20478;-63
2024/01/16 05:59:16;;;;;;;3.50;0.40;;;0.00;99.90;;;;;;5080578;28;20040;-62
2024/01/16 06:01:41;;;;;;;8.43;1.00;;;0.00;99.90;;;;;;5089891;28;20933;-62
2024/01/16 06:04:07;;;;;;;5.88;0.93;;;0.00;99.90;;;;;;5088973;28;20053;-62
2024/01/16 06:06:33;;;;;;;4.57;0.80;;;0.00;99.90;;;;;;5088569;28;20047;-62
2024/01/16 06:09:02;;;;;;;7.88;0.88;;;0.00;99.90;;;;;;5089834;28;20059;-63
2024/01/16 06:11:32;;;;;;;6.50;0.63;;;0.10;99.90;;;;;;5090667;28;20548;-63
2024/01/16 06:13:59;;;;;;;6.40;0.65;;;0.10;99.90;;;;;;5090375;28;20513;-63
2024/01/16 06:16:25;;;;;;;2.80;0.40;;;0.10;99.90;;;;;;5087773;28;20412;-63
2024/01/16 06:18:51;;;;;;;4.13;0.60;;;0.10;99.90;;;;;;5086178;28;20048;-63
2024/01/16 06:21:17;;;;;;;2.97;0.30;;;0.10;99.90;;;;;;5086502;28;20507;-63
2024/01/16 06:23:43;;;;;;;6.15;0.55;;;0.10;99.90;;;;;;5087117;28;20068;-63
2024/01/16 06:26:09;;;;;;;4.43;0.40;;;0.10;99.90;;;;;;5090106;28;20064;-63
2024/01/16 06:28:34;;;;;;;4.38;0.40;;;0.10;99.90;;;;;;5084806;28;20047;-63
2024/01/16 06:31:00;;;;;;;8.27;0.60;;;0.10;99.90;;;;;;5087919;28;20405;-63
2024/01/16 06:33:26;;;;;;;11.60;0.60;;;0.10;99.90;;;;;;5086819;28;20040;-63
2024/01/16 06:35:54;;;;;;;6.65;1.20;;;0.10;99.90;;;;;;5087353;28;20043;-63
2024/01/16 06:38:20;;;;;;;5.63;0.50;;;0.10;99.90;;;;;;5082786;28;20040;-63
2024/01/16 06:40:45;;;;;;;6.93;1.10;;;0.20;99.90;;;;;;5086859;28;20042;-63
2024/01/16 06:43:14;;;;;;;6.68;0.47;;;0.20;99.90;;;;;;5090237;28;20551;-63
2024/01/16 06:45:40;;;;;;;5.07;0.50;;;0.20;99.90;;;;;;5087151;27;20424;-63
2024/01/16 06:48:05;;;;;;;5.75;0.60;;;0.20;99.90;;;;;;5086254;28;20044;-63
2024/01/16 06:50:31;;;;;;;5.20;0.75;;;0.20;99.90;;;;;;5088365;28;20028;-63
2024/01/16 06:52:57;;;;;;;6.53;0.73;;;0.30;99.90;;;;;;5090715;28;20046;-63
2024/01/16 06:55:22;;;;;;;6.43;0.65;;;0.30;99.90;;;;;;5086289;28;20047;-63
2024/01/16 06:57:48;;;;;;;4.03;0.50;;;0.30;99.90;;;;;;5088132;28;20072;-62
2024/01/16 07:00:14;;;;;;;7.28;0.93;;;0.30;99.90;;;;;;5087100;28;20036;-63
2024/01/16 07:02:43;;;;;;;6.07;0.60;;;0.30;99.90;;;;;;5081426;28;20394;-65
2024/01/16 07:05:11;;;;;;;8.43;0.77;;;0.30;99.90;;;;;;5081369;28;20052;-65
2024/01/16 07:07:36;;;;;;;5.25;1.80;;;0.30;99.90;;;;;;5085404;28;20032;-66
2024/01/16 07:10:02;;;;;;;6.03;0.60;;;0.40;99.90;;;;;;5086155;28;20059;-65
2024/01/16 07:12:28;;;;;;;5.30;0.88;;;0.30;99.90;;;;;;5084543;28;20058;-65
2024/01/16 07:14:54;;;;;;;7.95;0.88;;;0.30;99.90;;;;;;5084344;28;20085;-65
2024/01/16 07:17:19;;;;;;;8.93;1.52;;;0.30;99.90;;;;;;5083212;28;20093;-65
2024/01/16 07:19:45;;;;;;;3.75;0.68;;;0.30;99.90;;;;;;5079142;28;20048;-65
2024/01/16 07:22:10;;;;;;;7.15;1.08;;;0.30;99.90;;;;;;5083212;28;20044;-65
2024/01/16 07:24:36;;;;;;;6.60;1.02;;;0.30;99.90;;;;;;5074558;28;20052;-65
2024/01/16 07:27:02;;;;;;;7.32;1.05;;;0.30;99.90;;;;;;5087879;28;20090;-65
2024/01/16 07:29:28;;;;;;;6.07;1.00;;;0.30;99.90;;;;;;5082516;28;20044;-65
2024/01/16 07:31:54;;;;;;;5.93;0.90;;;0.30;99.90;;;;;;5084277;28;20036;-65
2024/01/16 07:34:21;;;;;;;5.78;1.58;;;0.30;99.90;;;;;;5084462;28;20054;-65
2024/01/16 07:36:48;;;;;;;4.18;1.58;;;0.30;99.90;;;;;;5114725;27;20067;-65
2024/01/16 07:39:14;;;;;;;9.18;1.77;;;0.20;99.90;;;;;;5087203;28;20036;-65
2024/01/16 07:41:40;;;;;;;5.15;1.83;;;0.30;99.90;;;;;;5084386;28;20039;-65
2024/01/16 07:44:05;;;;;;;4.00;1.60;;;0.30;99.90;;;;;;5083731;28;20044;-64
2024/01/16 07:46:31;;;;;;;10.20;1.95;;;0.30;99.90;;;;;;5088035;28;20035;-65
2024/01/16 07:48:57;;;;;;;3.22;1.30;;;0.30;99.90;;;;;;5085221;28;20051;-64
2024/01/16 07:51:22;;;;;;;6.28;2.03;;;0.40;99.90;;;;;;5090811;28;20039;-65
2024/01/16 07:53:51;;;;;;;7.25;2.45;;;0.40;99.90;;;;;;5093679;28;20175;-65
2024/01/16 07:56:17;;;;;;;7.15;2.50;;;0.40;99.90;;;;;;5078428;28;20051;-65
2024/01/16 07:58:43;;;;;;;8.07;2.38;;;0.40;99.90;;;;;;5081500;28;20066;-65
2024/01/16 08:01:09;;;;;;;7.97;2.63;;;0.40;99.90;;;;;;5082148;28;20043;-65
2024/01/16 08:03:34;;;;;;;6.40;2.42;;;0.50;99.90;;;;;;5080686;28;20040;-65
2024/01/16 08:06:00;;;;;;;7.22;2.78;;;0.50;99.90;;;;;;5081060;28;20040;-65
2024/01/16 08:08:26;;;;;;;6.85;2.78;;;0.50;99.90;;;;;;5078719;28;20040;-65
2024/01/16 08:10:51;;;;;;;5.20;2.78;;;0.50;99.90;;;;;;5078995;28;20035;-65
2024/01/16 08:13:17;;;;;;;8.18;3.50;;;0.50;99.90;;;;;;5079421;28;20059;-65
2024/01/16 08:15:42;;;;;;;13.35;3.72;;;0.50;99.90;;;;;;5080208;28;20081;-65
2024/01/16 08:18:08;;;;;;;9.70;3.00;;;0.50;99.90;;;;;;5115221;28;20495;-65
2024/01/16 08:20:33;;;;;;;6.05;2.63;;;0.50;99.90;;;;;;5077547;28;20048;-65
2024/01/16 08:22:59;;;;;;;7.18;2.53;;;0.50;99.90;;;;;;5079379;28;20065;-65
2024/01/16 08:25:25;;;;;;;6.03;3.13;;;0.50;99.90;;;;;;5079880;28;20076;-65
2024/01/16 08:27:50;;;;;;;7.30;3.00;;;0.50;99.90;;;;;;5076606;28;20071;-65
2024/01/16 08:30:16;;;;;;;10.65;4.13;;;0.50;99.90;;;;;;5109634;27;20406;-65
2024/01/16 08:32:42;;;;;;;5.78;3.40;;;0.50;99.90;;;;;;5080378;28;20512;-65
2024/01/16 08:35:08;;;;;;;10.18;4.80;;;0.60;99.90;;;;;;5081922;28;20437;-65
2024/01/16 08:37:34;;;;;;;10.80;5.13;;;0.70;99.90;;;;;;5080429;28;20047;-65
2024/01/16 08:39:59;;;;;;;9.13;4.90;;;0.70;99.90;;;;;;5093136;28;20130;-65
2024/01/16 08:42:25;;;;;;;11.10;4.50;;;0.80;99.90;;;;;;5077315;28;20035;-65
2024/01/16 08:44:51;;;;;;;9.05;5.20;;;0.90;99.90;;;;;;5079382;28;20037;-65
2024/01/16 08:47:16;;;;;;;8.02;4.38;;;1.00;99.90;;;;;;5078253;28;20068;-65
2024/01/16 08:49:43;;;;;;;10.77;4.47;;;0.90;99.90;;;;;;5080142;28;20501;-65
2024/01/16 08:52:09;;;;;;;8.00;4.47;;;1.00;99.90;;;;;;5078192;28;20150;-65
2024/01/16 08:54:35;;;;;;;7.47;3.50;;;1.00;99.90;;;;;;5116904;27;20036;-65
2024/01/16 08:57:01;;;;;;;6.70;3.60;;;1.00;99.90;;;;;;5085125;28;20497;-65
2024/01/16 08:59:28;;;;;;;10.90;4.32;;;1.10;99.90;;;;;;5084241;28;20455;-65
2024/01/16 09:01:53;;;;;;;5.38;2.95;;;1.10;99.90;;;;;;5088161;28;20103;-65
2024/01/16 09:04:19;;;;;;;10.70;3.78;;;1.20;99.90;;;;;;5081156;28;20120;-65
2024/01/16 09:06:45;;;;;;;7.88;2.95;;;1.10;99.90;;;;;;5084730;28;20671;-65
2024/01/16 09:09:12;;;;;;;9.57;3.45;;;1.10;99.90;;;;;;5084941;28;20047;-65
2024/01/16 09:11:38;;;;;;;5.05;2.67;;;1.20;99.90;;;;;;5086689;28;20097;-65
2024/01/16 09:14:03;;;;;;;7.88;3.20;;;1.20;99.90;;;;;;5083954;28;20033;-65
2024/01/16 09:16:29;;;;;;;7.00;2.75;;;1.20;99.90;;;;;;5079813;28;20425;-65
2024/01/16 09:18:54;;;;;;;7.97;2.90;;;1.20;99.90;;;;;;5082609;28;20538;-65
2024/01/16 09:21:20;;;;;;;5.95;2.90;;;1.20;99.90;;;;;;5085098;28;20028;-65
2024/01/16 09:23:46;;;;;;;6.55;2.60;;;1.30;99.90;;;;;;5113223;27;20055;-65
2024/01/16 09:26:12;;;;;;;5.25;2.65;;;1.30;99.90;;;;;;5084438;28;20494;-65
2024/01/16 09:28:39;;;;;;;6.18;3.08;;;1.20;99.90;;;;;;5085776;28;20474;-65
2024/01/16 09:31:06;;;;;;;5.55;3.72;;;1.30;99.90;;;;;;5113111;27;20499;-65
2024/01/16 09:33:32;;;;;;;6.75;3.88;;;1.20;99.90;;;;;;5083684;28;20051;-66
2024/01/16 09:35:57;;;;;;;9.32;4.50;;;1.30;99.90;;;;;;5085293;28;20040;-65
2024/01/16 09:38:23;;;;;;;9.18;4.68;;;1.30;99.90;;;;;;5083644;28;20478;-66
2024/01/16 09:40:50;;;;;;;7.60;5.53;;;1.30;99.90;;;;;;5083022;28;20047;-66
2024/01/16 09:43:16;;;;;;;7.65;5.45;;;1.40;99.90;;;;;;5082797;28;20044;-65
2024/01/16 09:45:42;;;;;;;8.55;5.75;;;1.40;99.90;;;;;;5100047;27;20047;-65
2024/01/16 09:48:08;;;;;;;11.77;5.72;;;1.30;99.90;;;;;;5083152;28;20048;-65
2024/01/16 09:50:35;;;;;;;7.18;5.40;;;1.30;99.90;;;;;;5112817;27;20089;-66
2024/01/16 09:53:00;;;;;;;9.50;5.00;;;1.40;99.90;;;;;;5086432;28;20048;-66
2024/01/16 09:55:26;;;;;;;8.80;5.15;;;1.30;99.90;;;;;;5084568;28;20039;-65
2024/01/16 09:57:53;;;;;;;14.48;5.10;;;1.40;99.90;;;;;;5087340;28;20496;-66
2024/01/16 10:00:19;;;;;;;10.32;5.47;;;1.40;99.90;;;;;;5087025;28;20040;-65
2024/01/16 10:02:45;;;;;;;8.95;4.80;;;1.40;99.90;;;;;;5084766;28;20119;-65
2024/01/16 10:05:12;;;;;;;7.88;4.75;;;1.40;99.90;;;;;;5081409;28;20118;-65
2024/01/16 10:07:39;;;;;;;7.05;4.53;;;1.40;99.90;;;;;;5096489;27;20044;-66
2024/01/16 10:10:06;;;;;;;8.93;4.10;;;1.40;99.90;;;;;;5113967;27;20079;-65
2024/01/16 10:12:33;;;;;;;9.10;4.50;;;1.40;99.90;;;;;;5087243;28;20063;-66
2024/01/16 10:14:59;;;;;;;9.13;4.30;;;1.50;99.90;;;;;;5115056;27;20052;-66
2024/01/16 10:17:38;;;;;;;15.35;4.65;;;1.50;99.90;;;;;;5084078;28;20059;-66
2024/01/16 10:20:04;;;;;;;9.00;4.03;;;1.40;99.90;;;;;;5080631;28;20055;-66
2024/01/16 10:22:30;;;;;;;7.00;3.90;;;1.40;99.90;;;;;;5063682;28;20036;-66
2024/01/16 10:25:16;;;;;;;10.23;3.75;;;1.50;99.90;;;;;;5082514;28;20382;-66
2024/01/16 10:27:42;;;;;;;8.67;3.03;;;1.50;99.90;;;;;;5082218;28;20043;-66
2024/01/16 10:30:08;;;;;;;6.72;3.47;;;1.50;99.90;;;;;;5084659;28;20067;-66
2024/01/16 10:32:39;;;;;;;5.18;2.25;;;1.60;99.90;;;;;;5082600;28;20475;-66
2024/01/16 10:35:10;;;;;;;5.22;1.95;;;1.60;99.90;;;;;;5081187;28;20035;-66
2024/01/16 10:37:53;;;;;;;5.55;1.65;;;1.60;99.90;;;;;;5082496;28;20052;-66
2024/01/16 10:40:24;;;;;;;5.20;1.10;;;1.70;99.90;;;;;;5083097;28;20502;-66
2024/01/16 10:43:01;;;;;;;6.45;1.42;;;1.70;99.90;;;;;;5084589;28;20044;-66
2024/01/16 10:45:26;;;;;;;7.32;1.15;;;1.70;99.90;;;;;;5081409;28;20052;-66
2024/01/16 10:48:04;;;;;;;8.40;1.75;;;1.60;99.90;;;;;;5082580;28;20047;-66
2024/01/16 10:50:30;;;;;;;2.83;0.82;;;1.70;99.90;;;;;;5084102;28;20051;-66
2024/01/16 10:53:00;;;;;;;4.68;1.20;;;1.70;99.90;;;;;;5084257;28;20040;-66
2024/01/16 10:55:28;;;;;;;4.25;0.95;;;1.70;99.90;;;;;;5083843;28;20036;-66
2024/01/16 10:57:56;;;;;;;3.58;0.43;;;1.70;99.90;;;;;;5088664;28;20040;-66
2024/01/16 11:00:24;;;;;;;3.95;1.00;;;1.60;99.90;;;;;;5087312;28;20549;-66
2024/01/16 11:03:00;;;;;;;4.55;0.70;;;1.60;99.90;;;;;;5080534;28;20485;-66
2024/01/16 11:05:26;;;;;;;;;;;1.70;99.90;;;;;;5080586;28;20043;-66
2024/01/16 11:07:54;;;;;;;4.22;0.55;;;1.60;99.90;;;;;;5112452;27;19924;-66
2024/01/16 11:10:21;;;;;;;4.05;0.50;;;1.70;99.90;;;;;;5084282;28;20130;-66
2024/01/16 11:12:49;;;;;;;5.13;0.73;;;1.70;99.90;;;;;;5083270;28;20036;-66
2024/01/16 11:15:16;;;;;;;8.80;2.53;;;1.70;99.90;;;;;;5081244;28;20059;-66
2024/01/16 11:17:44;;;;;;;8.77;1.50;;;1.70;99.90;;;;;;5083580;28;20622;-66
2024/01/16 11:20:13;;;;;;;4.80;0.70;;;1.70;99.90;;;;;;5082526;28;20386;-66
2024/01/16 11:22:42;;;;;;;9.50;1.02;;;1.70;99.90;;;;;;5080849;28;20471;-66
2024/01/16 11:25:12;;;;;;;6.05;1.55;;;1.70;99.90;;;;;;5083446;28;20387;-66
2024/01/16 11:27:39;;;;;;;4.82;0.77;;;1.70;99.90;;;;;;5080399;28;20032;-66
2024/01/16 11:30:07;;;;;;;6.93;0.57;;;1.70;99.90;;;;;;5081082;28;20058;-66
2024/01/16 11:32:44;;;;;;;4.40;0.80;;;1.70;99.90;;;;;;5078802;28;20590;-66
2024/01/16 11:35:13;;;;;;;3.97;0.40;;;1.70;99.90;;;;;;5082139;28;20040;-66
2024/01/16 11:37:44;;;;;;;4.85;0.70;;;1.70;99.90;;;;;;5113993;27;20051;-66
2024/01/16 11:40:20;;;;;;;2.65;0.40;;;1.70;99.90;;;;;;5111801;27;20071;-66
2024/01/16 11:42:53;;;;;;;4.43;0.80;;;1.70;99.90;;;;;;5079373;28;20041;-66
2024/01/16 11:45:29;;;;;;;3.35;0.85;;;1.70;99.90;;;;;;5115142;27;20141;-66
2024/01/16 11:48:14;;;;;;;5.25;0.45;;;1.60;99.90;;;;;;5083474;28;20039;-66
2024/01/16 11:50:41;;;;;;;3.97;0.77;;;1.60;99.90;;;;;;5067209;28;20361;-66
2024/01/16 11:53:06;;;;;;;4.05;0.73;;;1.60;99.90;;;;;;5084385;28;20176;-66
2024/01/16 11:55:58;;;;;;;5.05;0.93;;;1.60;99.90;;;;;;5080870;28;20054;-66
2024/01/16 11:58:49;;;;;;;8.00;1.15;;;1.60;99.90;;;;;;5081271;28;20051;-66
2024/01/16 12:01:16;;;;;;;6.22;1.10;;;1.60;99.90;;;;;;5081885;28;20532;-66
2024/01/16 12:03:41;;;;;;;5.82;1.08;;;1.60;99.90;;;;;;5080642;28;20386;-66
2024/01/16 12:06:08;;;;;;;5.22;1.90;;;1.60;99.90;;;;;;5077563;28;20044;-66
2024/01/16 12:08:36;;;;;;;5.63;1.30;;;1.60;99.90;;;;;;5082047;28;20044;-66
2024/01/16 12:11:02;;;;;;;5.28;1.63;;;1.60;99.90;;;;;;5082307;28;20376;-66
2024/01/16 12:13:28;;;;;;;8.35;1.83;;;1.60;99.90;;;;;;5081350;28;20048;-66
2024/01/16 12:16:04;;;;;;;8.80;1.58;;;1.60;99.90;;;;;;5079739;28;20387;-66
2024/01/16 12:18:30;;;;;;;7.50;1.45;;;1.60;99.90;;;;;;5080199;28;20044;-66
2024/01/16 12:20:56;;;;;;;5.75;1.73;;;1.60;99.90;;;;;;5081377;28;20474;-66
2024/01/16 12:23:23;;;;;;;9.52;1.85;;;1.60;99.90;;;;;;5081125;28;20040;-66
2024/01/16 12:25:53;;;;;;;8.80;2.35;;;1.60;99.90;;;;;;5081789;28;20161;-66
2024/01/16 12:28:21;;;;;;;7.85;2.25;;;1.60;99.90;;;;;;5088702;28;20730;-66
2024/01/16 12:30:51;;;;;;;7.80;2.22;;;1.60;99.90;;;;;;5083759;28;20063;-66
2024/01/16 12:33:21;;;;;;;4.78;2.03;;;1.60;99.90;;;;;;5087902;28;20039;-66
2024/01/16 12:35:47;;;;;;;8.63;2.10;;;1.60;99.90;;;;;;5112825;27;20620;-66
2024/01/16 12:38:13;;;;;;;7.93;2.38;;;1.70;99.90;;;;;;5115031;27;20167;-66
2024/01/16 12:40:41;;;;;;;6.40;2.30;;;1.70;99.90;;;;;;5089415;28;20036;-66
2024/01/16 12:43:09;;;;;;;9.82;3.83;;;1.70;99.90;;;;;;5087380;28;20115;-66
2024/01/16 12:45:35;;;;;;;7.72;2.60;;;1.80;99.90;;;;;;5098523;28;20101;-66
2024/01/16 12:48:03;;;;;;;8.82;3.90;;;1.80;99.90;;;;;;5083005;28;20036;-66
2024/01/16 12:50:30;;;;;;;9.48;3.85;;;1.70;99.90;;;;;;5082438;28;20037;-66